sensor_id;sensor_type;location;lat;lon;timestamp;P1;durP1;ratioP1;P2;durP2;ratioP2
50681;SDS011;36779;52.168;20.878;2023-07-02T00:00:36;27.00;;;13.20;;
50681;SDS011;36779;52.168;20.878;2023-07-02T00:03:31;28.00;;;13.30;;
50681;SDS011;36779;52.168;20.878;2023-07-02T00:06:00;25.60;;;13.30;;
50681;SDS011;36779;52.168;20.878;2023-07-02T00:08:31;24.00;;;12.80;;
50681;SDS011;36779;52.168;20.878;2023-07-02T00:11:01;26.20;;;12.70;;
50681;SDS011;36779;52.168;20.878;2023-07-02T00:13:32;28.70;;;12.90;;
50681;SDS011;36779;52.168;20.878;2023-07-02T00:16:05;30.80;;;13.00;;
50681;SDS011;36779;52.168;20.878;2023-07-02T00:18:37;26.20;;;12.90;;
50681;SDS011;36779;52.168;20.878;2023-07-02T00:21:06;25.10;;;12.70;;
50681;SDS011;36779;52.168;20.878;2023-07-02T00:23:35;30.10;;;13.30;;
50681;SDS011;36779;52.168;20.878;2023-07-02T00:26:04;29.20;;;13.30;;
50681;SDS011;36779;52.168;20.878;2023-07-02T00:28:33;26.40;;;12.40;;
50681;SDS011;36779;52.168;20.878;2023-07-02T00:31:02;24.20;;;12.80;;
50681;SDS011;36779;52.168;20.878;2023-07-02T00:33:31;29.90;;;13.60;;
50681;SDS011;36779;52.168;20.878;2023-07-02T00:36:01;27.60;;;13.40;;
50681;SDS011;36779;52.168;20.878;2023-07-02T00:38:35;24.70;;;12.70;;
50681;SDS011;36779;52.168;20.878;2023-07-02T00:41:05;35.20;;;14.10;;
50681;SDS011;36779;52.168;20.878;2023-07-02T00:43:36;26.20;;;13.00;;
50681;SDS011;36779;52.168;20.878;2023-07-02T00:46:12;26.90;;;13.90;;
50681;SDS011;36779;52.168;20.878;2023-07-02T00:51:25;28.30;;;12.70;;
50681;SDS011;36779;52.168;20.878;2023-07-02T00:53:56;28.40;;;13.00;;
50681;SDS011;36779;52.168;20.878;2023-07-02T00:56:26;27.00;;;13.10;;
50681;SDS011;36779;52.168;20.878;2023-07-02T00:59:03;29.40;;;11.80;;
50681;SDS011;36779;52.168;20.878;2023-07-02T01:01:35;25.10;;;12.80;;
50681;SDS011;36779;52.168;20.878;2023-07-02T01:04:08;23.90;;;12.30;;
50681;SDS011;36779;52.168;20.878;2023-07-02T01:06:45;26.80;;;11.80;;
50681;SDS011;36779;52.168;20.878;2023-07-02T01:09:15;28.70;;;11.90;;
50681;SDS011;36779;52.168;20.878;2023-07-02T01:11:44;24.30;;;12.50;;
50681;SDS011;36779;52.168;20.878;2023-07-02T01:14:29;25.80;;;13.00;;
50681;SDS011;36779;52.168;20.878;2023-07-02T01:17:03;27.20;;;12.00;;
50681;SDS011;36779;52.168;20.878;2023-07-02T01:19:38;25.90;;;11.30;;
50681;SDS011;36779;52.168;20.878;2023-07-02T01:22:12;24.10;;;11.60;;
50681;SDS011;36779;52.168;20.878;2023-07-02T01:24:41;25.80;;;12.20;;
50681;SDS011;36779;52.168;20.878;2023-07-02T01:27:20;24.50;;;10.80;;
50681;SDS011;36779;52.168;20.878;2023-07-02T01:29:53;30.70;;;13.10;;
50681;SDS011;36779;52.168;20.878;2023-07-02T01:32:22;21.50;;;11.70;;
50681;SDS011;36779;52.168;20.878;2023-07-02T01:34:52;23.70;;;12.30;;
50681;SDS011;36779;52.168;20.878;2023-07-02T01:37:25;26.30;;;12.40;;
50681;SDS011;36779;52.168;20.878;2023-07-02T01:40:00;29.30;;;12.50;;
50681;SDS011;36779;52.168;20.878;2023-07-02T01:42:31;24.70;;;11.40;;
50681;SDS011;36779;52.168;20.878;2023-07-02T01:45:03;26.60;;;12.10;;
50681;SDS011;36779;52.168;20.878;2023-07-02T01:47:33;26.90;;;12.10;;
50681;SDS011;36779;52.168;20.878;2023-07-02T01:50:03;27.20;;;11.70;;
50681;SDS011;36779;52.168;20.878;2023-07-02T01:52:33;24.50;;;12.30;;
50681;SDS011;36779;52.168;20.878;2023-07-02T01:55:05;29.00;;;12.50;;
50681;SDS011;36779;52.168;20.878;2023-07-02T01:57:35;27.00;;;12.30;;
50681;SDS011;36779;52.168;20.878;2023-07-02T02:00:06;24.50;;;12.40;;
50681;SDS011;36779;52.168;20.878;2023-07-02T02:02:42;23.50;;;11.70;;
50681;SDS011;36779;52.168;20.878;2023-07-02T02:05:12;26.60;;;11.90;;
50681;SDS011;36779;52.168;20.878;2023-07-02T02:07:41;23.80;;;11.40;;
50681;SDS011;36779;52.168;20.878;2023-07-02T02:10:25;23.20;;;10.00;;
50681;SDS011;36779;52.168;20.878;2023-07-02T02:12:54;27.00;;;12.00;;
50681;SDS011;36779;52.168;20.878;2023-07-02T02:15:23;25.50;;;11.50;;
50681;SDS011;36779;52.168;20.878;2023-07-02T02:18:03;26.70;;;12.20;;
50681;SDS011;36779;52.168;20.878;2023-07-02T02:20:35;25.50;;;11.90;;
50681;SDS011;36779;52.168;20.878;2023-07-02T02:23:05;24.20;;;11.70;;
50681;SDS011;36779;52.168;20.878;2023-07-02T02:25:34;24.00;;;11.40;;
50681;SDS011;36779;52.168;20.878;2023-07-02T02:28:04;23.80;;;11.90;;
50681;SDS011;36779;52.168;20.878;2023-07-02T02:30:33;23.10;;;11.40;;
50681;SDS011;36779;52.168;20.878;2023-07-02T02:33:06;24.00;;;12.10;;
50681;SDS011;36779;52.168;20.878;2023-07-02T02:35:40;23.30;;;11.40;;
50681;SDS011;36779;52.168;20.878;2023-07-02T02:38:16;21.50;;;11.20;;
50681;SDS011;36779;52.168;20.878;2023-07-02T02:40:53;25.00;;;11.30;;
50681;SDS011;36779;52.168;20.878;2023-07-02T02:43:22;26.30;;;11.60;;
50681;SDS011;36779;52.168;20.878;2023-07-02T02:45:54;23.50;;;11.00;;
50681;SDS011;36779;52.168;20.878;2023-07-02T02:48:25;23.20;;;10.80;;
50681;SDS011;36779;52.168;20.878;2023-07-02T02:50:56;22.20;;;10.30;;
50681;SDS011;36779;52.168;20.878;2023-07-02T02:53:26;24.30;;;11.00;;
50681;SDS011;36779;52.168;20.878;2023-07-02T02:55:57;26.50;;;11.70;;
50681;SDS011;36779;52.168;20.878;2023-07-02T02:58:25;23.60;;;11.50;;
50681;SDS011;36779;52.168;20.878;2023-07-02T03:00:55;23.00;;;10.00;;
50681;SDS011;36779;52.168;20.878;2023-07-02T03:03:24;23.60;;;11.30;;
50681;SDS011;36779;52.168;20.878;2023-07-02T03:05:55;21.10;;;10.40;;
50681;SDS011;36779;52.168;20.878;2023-07-02T03:08:24;22.50;;;10.30;;
50681;SDS011;36779;52.168;20.878;2023-07-02T03:10:55;17.90;;;10.70;;
50681;SDS011;36779;52.168;20.878;2023-07-02T03:13:31;20.00;;;9.70;;
50681;SDS011;36779;52.168;20.878;2023-07-02T03:16:02;19.90;;;10.30;;
50681;SDS011;36779;52.168;20.878;2023-07-02T03:18:32;20.90;;;10.70;;
50681;SDS011;36779;52.168;20.878;2023-07-02T03:21:02;23.30;;;10.20;;
50681;SDS011;36779;52.168;20.878;2023-07-02T03:23:40;21.90;;;11.00;;
50681;SDS011;36779;52.168;20.878;2023-07-02T03:26:12;21.80;;;9.90;;
50681;SDS011;36779;52.168;20.878;2023-07-02T03:28:41;21.60;;;10.20;;
50681;SDS011;36779;52.168;20.878;2023-07-02T03:31:10;21.70;;;9.60;;
50681;SDS011;36779;52.168;20.878;2023-07-02T03:36:37;21.30;;;10.60;;
50681;SDS011;36779;52.168;20.878;2023-07-02T03:39:07;19.60;;;9.50;;
50681;SDS011;36779;52.168;20.878;2023-07-02T03:41:37;19.60;;;10.20;;
50681;SDS011;36779;52.168;20.878;2023-07-02T03:44:09;22.20;;;9.80;;
50681;SDS011;36779;52.168;20.878;2023-07-02T03:46:37;20.30;;;9.80;;
50681;SDS011;36779;52.168;20.878;2023-07-02T03:49:07;15.90;;;9.20;;
50681;SDS011;36779;52.168;20.878;2023-07-02T03:51:41;17.80;;;9.60;;
50681;SDS011;36779;52.168;20.878;2023-07-02T03:54:13;18.10;;;9.20;;
50681;SDS011;36779;52.168;20.878;2023-07-02T03:56:42;17.80;;;9.90;;
50681;SDS011;36779;52.168;20.878;2023-07-02T03:59:11;14.10;;;8.90;;
50681;SDS011;36779;52.168;20.878;2023-07-02T04:01:40;18.80;;;9.70;;
50681;SDS011;36779;52.168;20.878;2023-07-02T04:04:13;18.90;;;9.50;;
50681;SDS011;36779;52.168;20.878;2023-07-02T04:06:43;17.10;;;9.60;;
50681;SDS011;36779;52.168;20.878;2023-07-02T04:09:12;16.60;;;8.70;;
50681;SDS011;36779;52.168;20.878;2023-07-02T04:11:41;19.40;;;9.30;;
50681;SDS011;36779;52.168;20.878;2023-07-02T04:14:10;16.80;;;9.10;;
50681;SDS011;36779;52.168;20.878;2023-07-02T04:16:39;16.90;;;9.40;;
50681;SDS011;36779;52.168;20.878;2023-07-02T04:19:15;15.80;;;8.20;;
50681;SDS011;36779;52.168;20.878;2023-07-02T04:21:44;15.10;;;8.50;;
50681;SDS011;36779;52.168;20.878;2023-07-02T04:24:13;15.60;;;8.10;;
50681;SDS011;36779;52.168;20.878;2023-07-02T04:26:43;17.10;;;8.40;;
50681;SDS011;36779;52.168;20.878;2023-07-02T04:29:38;14.40;;;7.90;;
50681;SDS011;36779;52.168;20.878;2023-07-02T04:32:13;15.40;;;8.10;;
50681;SDS011;36779;52.168;20.878;2023-07-02T04:34:48;16.80;;;7.30;;
50681;SDS011;36779;52.168;20.878;2023-07-02T04:37:20;14.00;;;7.70;;
50681;SDS011;36779;52.168;20.878;2023-07-02T04:39:52;16.30;;;9.00;;
50681;SDS011;36779;52.168;20.878;2023-07-02T04:42:29;14.00;;;7.90;;
50681;SDS011;36779;52.168;20.878;2023-07-02T04:45:06;14.60;;;8.00;;
50681;SDS011;36779;52.168;20.878;2023-07-02T04:47:35;14.30;;;8.30;;
50681;SDS011;36779;52.168;20.878;2023-07-02T04:50:08;14.80;;;7.40;;
50681;SDS011;36779;52.168;20.878;2023-07-02T04:52:38;13.60;;;7.30;;
50681;SDS011;36779;52.168;20.878;2023-07-02T04:55:08;9.80;;;6.40;;
50681;SDS011;36779;52.168;20.878;2023-07-02T04:57:38;11.20;;;6.30;;
50681;SDS011;36779;52.168;20.878;2023-07-02T05:00:08;14.10;;;7.10;;
50681;SDS011;36779;52.168;20.878;2023-07-02T05:02:38;12.20;;;6.40;;
50681;SDS011;36779;52.168;20.878;2023-07-02T05:05:08;12.60;;;6.90;;
50681;SDS011;36779;52.168;20.878;2023-07-02T05:07:40;12.00;;;6.90;;
50681;SDS011;36779;52.168;20.878;2023-07-02T05:10:11;11.10;;;5.90;;
50681;SDS011;36779;52.168;20.878;2023-07-02T05:12:46;10.50;;;6.80;;
50681;SDS011;36779;52.168;20.878;2023-07-02T05:15:19;11.80;;;6.90;;
50681;SDS011;36779;52.168;20.878;2023-07-02T05:17:54;9.80;;;6.40;;
50681;SDS011;36779;52.168;20.878;2023-07-02T05:20:25;13.20;;;6.40;;
50681;SDS011;36779;52.168;20.878;2023-07-02T05:22:55;10.80;;;6.60;;
50681;SDS011;36779;52.168;20.878;2023-07-02T05:25:24;12.00;;;6.10;;
50681;SDS011;36779;52.168;20.878;2023-07-02T05:27:54;14.70;;;6.70;;
50681;SDS011;36779;52.168;20.878;2023-07-02T05:30:23;12.30;;;5.80;;
50681;SDS011;36779;52.168;20.878;2023-07-02T05:32:53;11.80;;;6.50;;
50681;SDS011;36779;52.168;20.878;2023-07-02T05:35:22;13.90;;;6.40;;
50681;SDS011;36779;52.168;20.878;2023-07-02T05:37:54;12.40;;;6.60;;
50681;SDS011;36779;52.168;20.878;2023-07-02T05:40:23;13.10;;;7.10;;
50681;SDS011;36779;52.168;20.878;2023-07-02T05:42:53;10.20;;;6.10;;
50681;SDS011;36779;52.168;20.878;2023-07-02T05:45:24;12.10;;;6.20;;
50681;SDS011;36779;52.168;20.878;2023-07-02T05:47:54;10.00;;;5.90;;
50681;SDS011;36779;52.168;20.878;2023-07-02T05:50:26;11.70;;;5.90;;
50681;SDS011;36779;52.168;20.878;2023-07-02T05:52:55;12.50;;;6.10;;
50681;SDS011;36779;52.168;20.878;2023-07-02T05:55:24;10.80;;;5.90;;
50681;SDS011;36779;52.168;20.878;2023-07-02T05:57:54;8.50;;;5.70;;
50681;SDS011;36779;52.168;20.878;2023-07-02T06:00:28;13.20;;;6.00;;
50681;SDS011;36779;52.168;20.878;2023-07-02T06:02:57;9.80;;;5.30;;
50681;SDS011;36779;52.168;20.878;2023-07-02T06:05:27;8.80;;;5.30;;
50681;SDS011;36779;52.168;20.878;2023-07-02T06:07:57;11.40;;;5.70;;
50681;SDS011;36779;52.168;20.878;2023-07-02T06:10:26;10.70;;;5.70;;
50681;SDS011;36779;52.168;20.878;2023-07-02T06:12:59;10.00;;;6.50;;
50681;SDS011;36779;52.168;20.878;2023-07-02T06:15:28;10.60;;;6.00;;
50681;SDS011;36779;52.168;20.878;2023-07-02T06:18:00;12.00;;;6.80;;
50681;SDS011;36779;52.168;20.878;2023-07-02T06:20:31;10.20;;;6.00;;
50681;SDS011;36779;52.168;20.878;2023-07-02T06:23:02;13.80;;;7.80;;
50681;SDS011;36779;52.168;20.878;2023-07-02T06:25:31;9.00;;;5.90;;
50681;SDS011;36779;52.168;20.878;2023-07-02T06:28:03;11.80;;;6.40;;
50681;SDS011;36779;52.168;20.878;2023-07-02T06:30:41;13.20;;;6.20;;
50681;SDS011;36779;52.168;20.878;2023-07-02T06:33:12;10.30;;;5.50;;
50681;SDS011;36779;52.168;20.878;2023-07-02T06:35:44;10.70;;;5.40;;
50681;SDS011;36779;52.168;20.878;2023-07-02T06:38:21;8.50;;;5.50;;
50681;SDS011;36779;52.168;20.878;2023-07-02T06:40:50;9.50;;;6.20;;
50681;SDS011;36779;52.168;20.878;2023-07-02T06:43:26;11.60;;;6.40;;
50681;SDS011;36779;52.168;20.878;2023-07-02T06:45:55;8.20;;;6.00;;
50681;SDS011;36779;52.168;20.878;2023-07-02T06:48:25;10.80;;;5.40;;
50681;SDS011;36779;52.168;20.878;2023-07-02T06:50:55;8.80;;;4.60;;
50681;SDS011;36779;52.168;20.878;2023-07-02T06:53:35;8.70;;;5.30;;
50681;SDS011;36779;52.168;20.878;2023-07-02T06:56:10;11.20;;;4.90;;
50681;SDS011;36779;52.168;20.878;2023-07-02T06:58:43;8.40;;;5.70;;
50681;SDS011;36779;52.168;20.878;2023-07-02T07:01:12;9.10;;;4.70;;
50681;SDS011;36779;52.168;20.878;2023-07-02T07:06:28;8.90;;;5.70;;
50681;SDS011;36779;52.168;20.878;2023-07-02T07:09:01;7.60;;;5.40;;
50681;SDS011;36779;52.168;20.878;2023-07-02T07:11:34;8.60;;;5.40;;
50681;SDS011;36779;52.168;20.878;2023-07-02T07:14:03;10.00;;;5.80;;
50681;SDS011;36779;52.168;20.878;2023-07-02T07:16:35;8.30;;;5.40;;
50681;SDS011;36779;52.168;20.878;2023-07-02T07:19:06;6.10;;;3.70;;
50681;SDS011;36779;52.168;20.878;2023-07-02T07:21:37;7.80;;;4.50;;
50681;SDS011;36779;52.168;20.878;2023-07-02T07:24:07;8.00;;;4.60;;
50681;SDS011;36779;52.168;20.878;2023-07-02T07:26:39;7.40;;;4.60;;
50681;SDS011;36779;52.168;20.878;2023-07-02T07:29:08;7.80;;;5.00;;
50681;SDS011;36779;52.168;20.878;2023-07-02T07:31:37;6.20;;;3.80;;
50681;SDS011;36779;52.168;20.878;2023-07-02T07:34:07;5.40;;;3.30;;
50681;SDS011;36779;52.168;20.878;2023-07-02T07:36:41;6.30;;;4.30;;
50681;SDS011;36779;52.168;20.878;2023-07-02T07:39:10;4.30;;;3.20;;
50681;SDS011;36779;52.168;20.878;2023-07-02T07:41:49;6.20;;;3.60;;
50681;SDS011;36779;52.168;20.878;2023-07-02T07:44:20;5.20;;;3.40;;
50681;SDS011;36779;52.168;20.878;2023-07-02T07:46:49;5.80;;;3.90;;
50681;SDS011;36779;52.168;20.878;2023-07-02T07:49:20;5.40;;;3.60;;
50681;SDS011;36779;52.168;20.878;2023-07-02T07:51:50;7.10;;;4.00;;
50681;SDS011;36779;52.168;20.878;2023-07-02T07:54:32;6.10;;;3.50;;
50681;SDS011;36779;52.168;20.878;2023-07-02T07:57:06;6.60;;;3.70;;
50681;SDS011;36779;52.168;20.878;2023-07-02T07:59:36;6.00;;;3.50;;
50681;SDS011;36779;52.168;20.878;2023-07-02T08:02:06;6.00;;;3.00;;
50681;SDS011;36779;52.168;20.878;2023-07-02T08:04:41;8.10;;;3.90;;
50681;SDS011;36779;52.168;20.878;2023-07-02T08:07:10;5.90;;;3.40;;
50681;SDS011;36779;52.168;20.878;2023-07-02T08:09:40;5.00;;;2.50;;
50681;SDS011;36779;52.168;20.878;2023-07-02T08:12:12;7.50;;;3.50;;
50681;SDS011;36779;52.168;20.878;2023-07-02T08:14:45;4.30;;;3.20;;
50681;SDS011;36779;52.168;20.878;2023-07-02T08:17:15;4.60;;;2.80;;
50681;SDS011;36779;52.168;20.878;2023-07-02T08:19:46;7.90;;;3.50;;
50681;SDS011;36779;52.168;20.878;2023-07-02T08:22:15;10.20;;;3.00;;
50681;SDS011;36779;52.168;20.878;2023-07-02T08:24:44;6.00;;;3.10;;
50681;SDS011;36779;52.168;20.878;2023-07-02T08:27:17;4.00;;;2.90;;
50681;SDS011;36779;52.168;20.878;2023-07-02T08:29:47;4.20;;;3.00;;
50681;SDS011;36779;52.168;20.878;2023-07-02T08:32:17;5.50;;;2.90;;
50681;SDS011;36779;52.168;20.878;2023-07-02T08:34:46;5.20;;;2.70;;
50681;SDS011;36779;52.168;20.878;2023-07-02T08:37:16;5.60;;;2.90;;
50681;SDS011;36779;52.168;20.878;2023-07-02T08:39:49;4.90;;;2.70;;
50681;SDS011;36779;52.168;20.878;2023-07-02T08:42:19;3.60;;;2.70;;
50681;SDS011;36779;52.168;20.878;2023-07-02T08:44:53;4.50;;;2.00;;
50681;SDS011;36779;52.168;20.878;2023-07-02T08:47:23;3.80;;;2.80;;
50681;SDS011;36779;52.168;20.878;2023-07-02T08:49:57;7.50;;;2.30;;
50681;SDS011;36779;52.168;20.878;2023-07-02T08:52:27;3.70;;;2.40;;
50681;SDS011;36779;52.168;20.878;2023-07-02T08:55:02;4.70;;;2.10;;
50681;SDS011;36779;52.168;20.878;2023-07-02T08:57:33;3.30;;;2.60;;
50681;SDS011;36779;52.168;20.878;2023-07-02T09:00:11;2.50;;;2.30;;
50681;SDS011;36779;52.168;20.878;2023-07-02T09:02:49;3.80;;;2.90;;
50681;SDS011;36779;52.168;20.878;2023-07-02T09:05:21;4.00;;;2.70;;
50681;SDS011;36779;52.168;20.878;2023-07-02T09:07:53;3.10;;;2.40;;
50681;SDS011;36779;52.168;20.878;2023-07-02T09:10:29;4.10;;;2.50;;
50681;SDS011;36779;52.168;20.878;2023-07-02T09:13:03;3.60;;;2.90;;
50681;SDS011;36779;52.168;20.878;2023-07-02T09:15:39;3.60;;;2.40;;
50681;SDS011;36779;52.168;20.878;2023-07-02T09:18:18;10.40;;;3.60;;
50681;SDS011;36779;52.168;20.878;2023-07-02T09:20:50;4.60;;;2.80;;
50681;SDS011;36779;52.168;20.878;2023-07-02T09:23:33;4.60;;;2.50;;
50681;SDS011;36779;52.168;20.878;2023-07-02T09:26:04;4.00;;;3.40;;
50681;SDS011;36779;52.168;20.878;2023-07-02T09:28:32;2.60;;;2.40;;
50681;SDS011;36779;52.168;20.878;2023-07-02T09:31:01;4.60;;;2.40;;
50681;SDS011;36779;52.168;20.878;2023-07-02T09:33:31;2.90;;;2.40;;
50681;SDS011;36779;52.168;20.878;2023-07-02T09:36:01;2.60;;;2.40;;
50681;SDS011;36779;52.168;20.878;2023-07-02T09:38:31;4.40;;;2.70;;
50681;SDS011;36779;52.168;20.878;2023-07-02T09:41:00;4.20;;;2.70;;
50681;SDS011;36779;52.168;20.878;2023-07-02T09:43:29;3.90;;;2.30;;
50681;SDS011;36779;52.168;20.878;2023-07-02T09:45:59;2.40;;;2.20;;
50681;SDS011;36779;52.168;20.878;2023-07-02T09:48:33;2.60;;;2.40;;
50681;SDS011;36779;52.168;20.878;2023-07-02T09:51:10;3.10;;;2.30;;
50681;SDS011;36779;52.168;20.878;2023-07-02T09:53:39;4.10;;;2.30;;
50681;SDS011;36779;52.168;20.878;2023-07-02T09:56:09;3.50;;;2.30;;
50681;SDS011;36779;52.168;20.878;2023-07-02T09:58:40;4.50;;;2.80;;
50681;SDS011;36779;52.168;20.878;2023-07-02T10:01:12;3.00;;;2.10;;
50681;SDS011;36779;52.168;20.878;2023-07-02T10:03:44;4.80;;;2.50;;
50681;SDS011;36779;52.168;20.878;2023-07-02T10:06:14;2.50;;;2.10;;
50681;SDS011;36779;52.168;20.878;2023-07-02T10:08:53;2.70;;;2.50;;
50681;SDS011;36779;52.168;20.878;2023-07-02T10:11:33;2.80;;;2.60;;
50681;SDS011;36779;52.168;20.878;2023-07-02T10:14:02;3.50;;;2.50;;
50681;SDS011;36779;52.168;20.878;2023-07-02T10:16:34;7.00;;;2.80;;
50681;SDS011;36779;52.168;20.878;2023-07-02T10:19:20;4.30;;;2.50;;
50681;SDS011;36779;52.168;20.878;2023-07-02T10:22:00;3.20;;;2.10;;
50681;SDS011;36779;52.168;20.878;2023-07-02T10:24:35;2.90;;;2.40;;
50681;SDS011;36779;52.168;20.878;2023-07-02T10:27:06;3.30;;;2.20;;
50681;SDS011;36779;52.168;20.878;2023-07-02T10:29:37;2.50;;;2.20;;
50681;SDS011;36779;52.168;20.878;2023-07-02T10:35:14;2.30;;;1.60;;
50681;SDS011;36779;52.168;20.878;2023-07-02T10:37:43;3.00;;;2.00;;
50681;SDS011;36779;52.168;20.878;2023-07-02T10:40:13;3.80;;;2.40;;
50681;SDS011;36779;52.168;20.878;2023-07-02T10:42:46;4.30;;;2.00;;
50681;SDS011;36779;52.168;20.878;2023-07-02T10:45:30;3.50;;;3.00;;
50681;SDS011;36779;52.168;20.878;2023-07-02T10:48:03;2.50;;;2.10;;
50681;SDS011;36779;52.168;20.878;2023-07-02T10:50:45;4.20;;;1.90;;
50681;SDS011;36779;52.168;20.878;2023-07-02T10:53:20;2.10;;;1.90;;
50681;SDS011;36779;52.168;20.878;2023-07-02T10:55:53;2.20;;;1.70;;
50681;SDS011;36779;52.168;20.878;2023-07-02T10:58:24;2.20;;;2.00;;
50681;SDS011;36779;52.168;20.878;2023-07-02T11:00:53;3.20;;;2.10;;
50681;SDS011;36779;52.168;20.878;2023-07-02T11:03:25;2.80;;;2.00;;
50681;SDS011;36779;52.168;20.878;2023-07-02T11:05:55;2.20;;;1.80;;
50681;SDS011;36779;52.168;20.878;2023-07-02T11:08:24;2.50;;;1.80;;
50681;SDS011;36779;52.168;20.878;2023-07-02T11:11:05;2.60;;;1.80;;
50681;SDS011;36779;52.168;20.878;2023-07-02T11:13:43;2.50;;;2.00;;
50681;SDS011;36779;52.168;20.878;2023-07-02T11:16:21;3.60;;;1.90;;
50681;SDS011;36779;52.168;20.878;2023-07-02T11:18:54;2.40;;;2.00;;
50681;SDS011;36779;52.168;20.878;2023-07-02T11:21:35;2.70;;;1.60;;
50681;SDS011;36779;52.168;20.878;2023-07-02T11:24:06;2.40;;;1.70;;
50681;SDS011;36779;52.168;20.878;2023-07-02T11:26:37;2.30;;;1.60;;
50681;SDS011;36779;52.168;20.878;2023-07-02T11:29:10;1.80;;;1.50;;
50681;SDS011;36779;52.168;20.878;2023-07-02T11:31:39;1.70;;;1.40;;
50681;SDS011;36779;52.168;20.878;2023-07-02T11:34:13;2.90;;;1.50;;
50681;SDS011;36779;52.168;20.878;2023-07-02T11:36:46;2.20;;;1.80;;
50681;SDS011;36779;52.168;20.878;2023-07-02T11:39:16;1.90;;;1.70;;
50681;SDS011;36779;52.168;20.878;2023-07-02T11:41:47;2.50;;;1.50;;
50681;SDS011;36779;52.168;20.878;2023-07-02T11:44:22;2.50;;;1.60;;
50681;SDS011;36779;52.168;20.878;2023-07-02T11:46:55;2.90;;;1.90;;
50681;SDS011;36779;52.168;20.878;2023-07-02T11:49:27;3.90;;;2.00;;
50681;SDS011;36779;52.168;20.878;2023-07-02T11:51:56;2.80;;;1.70;;
50681;SDS011;36779;52.168;20.878;2023-07-02T12:06:24;2.30;;;1.90;;
50681;SDS011;36779;52.168;20.878;2023-07-02T12:08:56;3.60;;;1.80;;
50681;SDS011;36779;52.168;20.878;2023-07-02T12:11:27;2.10;;;1.90;;
50681;SDS011;36779;52.168;20.878;2023-07-02T12:13:56;2.30;;;1.70;;
50681;SDS011;36779;52.168;20.878;2023-07-02T12:16:28;2.40;;;2.00;;
50681;SDS011;36779;52.168;20.878;2023-07-02T12:19:00;3.00;;;1.90;;
50681;SDS011;36779;52.168;20.878;2023-07-02T12:21:28;3.00;;;1.80;;
50681;SDS011;36779;52.168;20.878;2023-07-02T12:23:57;2.50;;;1.90;;
50681;SDS011;36779;52.168;20.878;2023-07-02T12:26:32;3.00;;;1.60;;
50681;SDS011;36779;52.168;20.878;2023-07-02T12:29:00;2.20;;;1.80;;
50681;SDS011;36779;52.168;20.878;2023-07-02T12:31:31;3.00;;;1.60;;
50681;SDS011;36779;52.168;20.878;2023-07-02T12:34:08;2.40;;;1.30;;
50681;SDS011;36779;52.168;20.878;2023-07-02T12:37:08;2.20;;;1.50;;
50681;SDS011;36779;52.168;20.878;2023-07-02T12:39:44;3.50;;;1.60;;
50681;SDS011;36779;52.168;20.878;2023-07-02T12:42:13;1.60;;;1.30;;
50681;SDS011;36779;52.168;20.878;2023-07-02T12:44:43;3.40;;;1.40;;
50681;SDS011;36779;52.168;20.878;2023-07-02T12:47:28;4.50;;;1.40;;
50681;SDS011;36779;52.168;20.878;2023-07-02T12:49:59;1.20;;;1.10;;
50681;SDS011;36779;52.168;20.878;2023-07-02T12:52:28;4.70;;;1.50;;
50681;SDS011;36779;52.168;20.878;2023-07-02T12:55:00;5.50;;;1.40;;
50681;SDS011;36779;52.168;20.878;2023-07-02T12:57:29;3.20;;;1.30;;
50681;SDS011;36779;52.168;20.878;2023-07-02T12:59:58;2.30;;;1.30;;
50681;SDS011;36779;52.168;20.878;2023-07-02T13:02:37;3.40;;;1.30;;
50681;SDS011;36779;52.168;20.878;2023-07-02T13:05:26;1.40;;;1.20;;
50681;SDS011;36779;52.168;20.878;2023-07-02T13:10:55;1.80;;;1.20;;
50681;SDS011;36779;52.168;20.878;2023-07-02T13:13:27;3.50;;;1.30;;
50681;SDS011;36779;52.168;20.878;2023-07-02T13:15:57;1.90;;;1.20;;
50681;SDS011;36779;52.168;20.878;2023-07-02T13:18:30;2.90;;;1.20;;
50681;SDS011;36779;52.168;20.878;2023-07-02T13:20:59;1.40;;;1.20;;
50681;SDS011;36779;52.168;20.878;2023-07-02T13:23:28;2.30;;;1.40;;
50681;SDS011;36779;52.168;20.878;2023-07-02T13:26:03;2.60;;;1.50;;
50681;SDS011;36779;52.168;20.878;2023-07-02T13:28:34;2.80;;;1.60;;
50681;SDS011;36779;52.168;20.878;2023-07-02T13:31:03;2.90;;;1.60;;
50681;SDS011;36779;52.168;20.878;2023-07-02T13:33:35;3.20;;;1.30;;
50681;SDS011;36779;52.168;20.878;2023-07-02T13:36:07;1.40;;;1.30;;
50681;SDS011;36779;52.168;20.878;2023-07-02T13:38:36;4.20;;;1.60;;
50681;SDS011;36779;52.168;20.878;2023-07-02T13:41:05;2.10;;;1.60;;
50681;SDS011;36779;52.168;20.878;2023-07-02T13:43:46;3.90;;;1.40;;
50681;SDS011;36779;52.168;20.878;2023-07-02T13:46:23;2.80;;;1.60;;
50681;SDS011;36779;52.168;20.878;2023-07-02T13:48:53;1.40;;;1.30;;
50681;SDS011;36779;52.168;20.878;2023-07-02T13:51:25;1.60;;;1.50;;
50681;SDS011;36779;52.168;20.878;2023-07-02T13:53:57;3.90;;;1.60;;
50681;SDS011;36779;52.168;20.878;2023-07-02T13:56:26;3.30;;;1.70;;
50681;SDS011;36779;52.168;20.878;2023-07-02T13:59:00;3.90;;;1.50;;
50681;SDS011;36779;52.168;20.878;2023-07-02T14:01:32;3.70;;;1.50;;
50681;SDS011;36779;52.168;20.878;2023-07-02T14:04:04;2.00;;;1.60;;
50681;SDS011;36779;52.168;20.878;2023-07-02T14:06:50;5.70;;;1.40;;
50681;SDS011;36779;52.168;20.878;2023-07-02T14:09:22;1.70;;;1.30;;
50681;SDS011;36779;52.168;20.878;2023-07-02T14:11:52;3.90;;;1.50;;
50681;SDS011;36779;52.168;20.878;2023-07-02T14:14:28;1.90;;;1.40;;
50681;SDS011;36779;52.168;20.878;2023-07-02T14:16:59;2.70;;;1.30;;
50681;SDS011;36779;52.168;20.878;2023-07-02T14:19:31;3.30;;;1.40;;
50681;SDS011;36779;52.168;20.878;2023-07-02T14:22:01;1.60;;;1.40;;
50681;SDS011;36779;52.168;20.878;2023-07-02T14:24:30;3.10;;;1.40;;
50681;SDS011;36779;52.168;20.878;2023-07-02T14:27:02;1.90;;;1.30;;
50681;SDS011;36779;52.168;20.878;2023-07-02T14:29:43;2.30;;;1.40;;
50681;SDS011;36779;52.168;20.878;2023-07-02T14:32:14;2.40;;;1.50;;
50681;SDS011;36779;52.168;20.878;2023-07-02T14:34:45;4.30;;;1.40;;
50681;SDS011;36779;52.168;20.878;2023-07-02T14:37:14;3.60;;;1.70;;
50681;SDS011;36779;52.168;20.878;2023-07-02T14:39:44;2.10;;;1.40;;
50681;SDS011;36779;52.168;20.878;2023-07-02T14:42:31;2.70;;;1.30;;
50681;SDS011;36779;52.168;20.878;2023-07-02T14:45:00;2.00;;;1.10;;
50681;SDS011;36779;52.168;20.878;2023-07-02T14:47:29;1.40;;;1.30;;
50681;SDS011;36779;52.168;20.878;2023-07-02T14:49:58;1.90;;;1.40;;
50681;SDS011;36779;52.168;20.878;2023-07-02T14:52:30;2.40;;;1.30;;
50681;SDS011;36779;52.168;20.878;2023-07-02T14:55:01;2.20;;;1.30;;
50681;SDS011;36779;52.168;20.878;2023-07-02T14:57:32;2.70;;;1.30;;
50681;SDS011;36779;52.168;20.878;2023-07-02T15:00:01;1.40;;;1.30;;
50681;SDS011;36779;52.168;20.878;2023-07-02T15:02:32;3.50;;;1.40;;
50681;SDS011;36779;52.168;20.878;2023-07-02T15:05:05;1.60;;;1.30;;
50681;SDS011;36779;52.168;20.878;2023-07-02T15:07:38;3.30;;;1.60;;
50681;SDS011;36779;52.168;20.878;2023-07-02T15:10:08;3.10;;;1.30;;
50681;SDS011;36779;52.168;20.878;2023-07-02T15:12:39;1.90;;;1.50;;
50681;SDS011;36779;52.168;20.878;2023-07-02T15:15:15;2.00;;;1.40;;
50681;SDS011;36779;52.168;20.878;2023-07-02T15:17:45;5.70;;;1.40;;
50681;SDS011;36779;52.168;20.878;2023-07-02T15:20:14;2.10;;;1.50;;